sensor_id;sensor_type;location;lat;lon;timestamp;pressure;altitude;pressure_sealevel;temperature;humidity
19096;BME280;9680;52.520;13.332;2022-12-17T00:02:10;101871.59;;;-1.30;83.95
19096;BME280;9680;52.520;13.332;2022-12-17T00:04:54;101876.81;;;-1.27;84.02
19096;BME280;9680;52.520;13.332;2022-12-17T00:07:38;101876.94;;;-1.23;83.85
19096;BME280;9680;52.520;13.332;2022-12-17T00:10:22;101883.88;;;-1.19;83.87
19096;BME280;9680;52.520;13.332;2022-12-17T00:13:19;101877.91;;;-1.19;83.63
19096;BME280;9680;52.520;13.332;2022-12-17T00:16:04;101886.31;;;-1.23;83.79
19096;BME280;9680;52.520;13.332;2022-12-17T00:18:48;101879.47;;;-1.24;83.81
19096;BME280;9680;52.520;13.332;2022-12-17T00:21:33;101884.47;;;-1.27;84.01
19096;BME280;9680;52.520;13.332;2022-12-17T00:24:17;101891.34;;;-1.25;84.41
19096;BME280;9680;52.520;13.332;2022-12-17T00:27:01;101897.25;;;-1.27;84.07
19096;BME280;9680;52.520;13.332;2022-12-17T00:29:45;101897.03;;;-1.35;84.40
19096;BME280;9680;52.520;13.332;2022-12-17T00:32:29;101898.75;;;-1.34;84.61
19096;BME280;9680;52.520;13.332;2022-12-17T00:35:13;101897.22;;;-1.29;85.25
19096;BME280;9680;52.520;13.332;2022-12-17T00:37:57;101898.13;;;-1.27;85.11
19096;BME280;9680;52.520;13.332;2022-12-17T00:40:41;101902.38;;;-1.27;85.17
19096;BME280;9680;52.520;13.332;2022-12-17T00:43:24;101901.66;;;-1.23;85.38
19096;BME280;9680;52.520;13.332;2022-12-17T00:46:09;101906.94;;;-1.17;85.35
19096;BME280;9680;52.520;13.332;2022-12-17T00:48:53;101912.00;;;-1.19;85.39
19096;BME280;9680;52.520;13.332;2022-12-17T00:51:37;101912.69;;;-1.24;85.22
19096;BME280;9680;52.520;13.332;2022-12-17T00:54:21;101916.75;;;-1.31;85.57
19096;BME280;9680;52.520;13.332;2022-12-17T00:57:05;101920.78;;;-1.38;85.66
19096;BME280;9680;52.520;13.332;2022-12-17T00:59:52;101919.22;;;-1.34;85.79
19096;BME280;9680;52.520;13.332;2022-12-17T01:02:36;101924.25;;;-1.37;85.68
19096;BME280;9680;52.520;13.332;2022-12-17T01:05:19;101925.78;;;-1.42;85.97
19096;BME280;9680;52.520;13.332;2022-12-17T01:08:13;101931.91;;;-1.37;86.20
19096;BME280;9680;52.520;13.332;2022-12-17T01:11:05;101939.81;;;-1.29;86.10
19096;BME280;9680;52.520;13.332;2022-12-17T01:13:50;101942.31;;;-1.31;86.04
19096;BME280;9680;52.520;13.332;2022-12-17T01:16:35;101947.25;;;-1.37;86.10
19096;BME280;9680;52.520;13.332;2022-12-17T01:19:19;101947.19;;;-1.39;86.25
19096;BME280;9680;52.520;13.332;2022-12-17T01:22:03;101947.25;;;-1.37;86.20
19096;BME280;9680;52.520;13.332;2022-12-17T01:24:48;101956.66;;;-1.36;86.23
19096;BME280;9680;52.520;13.332;2022-12-17T01:27:32;101948.97;;;-1.36;86.10
19096;BME280;9680;52.520;13.332;2022-12-17T01:30:16;101956.38;;;-1.45;85.75
19096;BME280;9680;52.520;13.332;2022-12-17T01:33:05;101960.38;;;-1.54;86.17
19096;BME280;9680;52.520;13.332;2022-12-17T01:35:53;101960.28;;;-1.57;86.16
19096;BME280;9680;52.520;13.332;2022-12-17T01:38:37;101954.38;;;-1.54;86.57
19096;BME280;9680;52.520;13.332;2022-12-17T01:41:22;101963.84;;;-1.52;86.60
19096;BME280;9680;52.520;13.332;2022-12-17T01:47:44;101969.81;;;-1.51;86.67
19096;BME280;9680;52.520;13.332;2022-12-17T01:50:32;101965.50;;;-1.54;86.47
19096;BME280;9680;52.520;13.332;2022-12-17T01:53:20;101969.50;;;-1.62;86.23
19096;BME280;9680;52.520;13.332;2022-12-17T01:56:06;101974.53;;;-1.64;86.46
19096;BME280;9680;52.520;13.332;2022-12-17T01:58:51;101975.44;;;-1.62;86.82
19096;BME280;9680;52.520;13.332;2022-12-17T02:01:35;101975.53;;;-1.60;86.68
19096;BME280;9680;52.520;13.332;2022-12-17T02:04:19;101971.97;;;-1.64;86.46
19096;BME280;9680;52.520;13.332;2022-12-17T02:10:38;101976.72;;;-1.74;86.74
19096;BME280;9680;52.520;13.332;2022-12-17T02:13:32;101983.56;;;-1.73;87.08
19096;BME280;9680;52.520;13.332;2022-12-17T02:16:23;101977.72;;;-1.71;86.90
19096;BME280;9680;52.520;13.332;2022-12-17T02:19:23;101967.31;;;-1.76;87.15
19096;BME280;9680;52.520;13.332;2022-12-17T02:25:36;101966.06;;;-1.63;87.39
19096;BME280;9680;52.520;13.332;2022-12-17T02:28:25;101974.81;;;-1.54;87.31
19096;BME280;9680;52.520;13.332;2022-12-17T02:31:11;101974.00;;;-1.53;86.96
19096;BME280;9680;52.520;13.332;2022-12-17T02:33:57;101972.97;;;-1.60;86.75
19096;BME280;9680;52.520;13.332;2022-12-17T02:36:43;101978.72;;;-1.66;86.70
19096;BME280;9680;52.520;13.332;2022-12-17T02:39:27;101983.94;;;-1.63;86.91
19096;BME280;9680;52.520;13.332;2022-12-17T02:42:12;101974.63;;;-1.61;86.87
19096;BME280;9680;52.520;13.332;2022-12-17T02:44:57;101981.34;;;-1.64;86.96
19096;BME280;9680;52.520;13.332;2022-12-17T02:47:42;101976.09;;;-1.67;87.02
19096;BME280;9680;52.520;13.332;2022-12-17T02:50:28;101984.59;;;-1.68;87.16
19096;BME280;9680;52.520;13.332;2022-12-17T02:53:13;101988.13;;;-1.65;87.40
19096;BME280;9680;52.520;13.332;2022-12-17T02:56:05;101990.13;;;-1.56;87.58
19096;BME280;9680;52.520;13.332;2022-12-17T02:58:49;101985.06;;;-1.54;87.24
19096;BME280;9680;52.520;13.332;2022-12-17T03:01:33;101996.91;;;-1.56;87.07
19096;BME280;9680;52.520;13.332;2022-12-17T03:04:17;101998.63;;;-1.57;87.07
19096;BME280;9680;52.520;13.332;2022-12-17T03:07:01;102000.38;;;-1.54;86.91
19096;BME280;9680;52.520;13.332;2022-12-17T03:09:46;102002.00;;;-1.58;86.97
19096;BME280;9680;52.520;13.332;2022-12-17T03:12:31;102003.00;;;-1.53;87.26
19096;BME280;9680;52.520;13.332;2022-12-17T03:15:35;102003.09;;;-1.50;86.80
19096;BME280;9680;52.520;13.332;2022-12-17T03:18:18;102006.47;;;-1.51;86.94
19096;BME280;9680;52.520;13.332;2022-12-17T03:21:03;102006.59;;;-1.48;87.05
19096;BME280;9680;52.520;13.332;2022-12-17T03:23:47;102009.13;;;-1.48;86.56
19096;BME280;9680;52.520;13.332;2022-12-17T03:26:31;102021.63;;;-1.57;86.36
19096;BME280;9680;52.520;13.332;2022-12-17T03:29:15;102021.25;;;-1.68;86.33
19096;BME280;9680;52.520;13.332;2022-12-17T03:31:59;102028.41;;;-1.83;86.38
19096;BME280;9680;52.520;13.332;2022-12-17T03:34:42;102021.66;;;-1.81;87.14
19096;BME280;9680;52.520;13.332;2022-12-17T03:37:26;102024.34;;;-1.77;86.98
19096;BME280;9680;52.520;13.332;2022-12-17T03:40:10;102025.25;;;-1.76;86.98
19096;BME280;9680;52.520;13.332;2022-12-17T03:42:54;102028.56;;;-1.79;87.43
19096;BME280;9680;52.520;13.332;2022-12-17T03:45:38;102034.38;;;-1.83;87.27
19096;BME280;9680;52.520;13.332;2022-12-17T03:48:22;102035.19;;;-1.84;87.42
19096;BME280;9680;52.520;13.332;2022-12-17T03:51:06;102038.84;;;-1.77;87.55
19096;BME280;9680;52.520;13.332;2022-12-17T03:53:50;102046.59;;;-1.74;87.80
19096;BME280;9680;52.520;13.332;2022-12-17T03:56:34;102040.69;;;-1.73;87.46
19096;BME280;9680;52.520;13.332;2022-12-17T03:59:18;102044.91;;;-1.73;87.30
19096;BME280;9680;52.520;13.332;2022-12-17T04:02:02;102052.66;;;-1.70;87.63
19096;BME280;9680;52.520;13.332;2022-12-17T04:04:45;102045.81;;;-1.71;87.80
19096;BME280;9680;52.520;13.332;2022-12-17T04:07:29;102056.81;;;-1.74;87.53
19096;BME280;9680;52.520;13.332;2022-12-17T04:10:13;102060.63;;;-1.87;87.33
19096;BME280;9680;52.520;13.332;2022-12-17T04:12:57;102067.44;;;-1.87;87.80
19096;BME280;9680;52.520;13.332;2022-12-17T04:15:42;102065.94;;;-1.81;88.16
19096;BME280;9680;52.520;13.332;2022-12-17T04:18:26;102061.00;;;-1.76;88.17
19096;BME280;9680;52.520;13.332;2022-12-17T04:21:10;102073.81;;;-1.74;88.05
19096;BME280;9680;52.520;13.332;2022-12-17T04:23:54;102071.53;;;-1.67;88.40
19096;BME280;9680;52.520;13.332;2022-12-17T04:26:39;102077.84;;;-1.57;88.32
19096;BME280;9680;52.520;13.332;2022-12-17T04:29:23;102081.25;;;-1.56;87.75
19096;BME280;9680;52.520;13.332;2022-12-17T04:32:07;102074.28;;;-1.62;87.75
19096;BME280;9680;52.520;13.332;2022-12-17T04:34:51;102078.41;;;-1.66;87.32
19096;BME280;9680;52.520;13.332;2022-12-17T04:37:35;102081.59;;;-1.71;87.58
19096;BME280;9680;52.520;13.332;2022-12-17T04:40:20;102089.94;;;-1.77;87.57
19096;BME280;9680;52.520;13.332;2022-12-17T04:43:09;102088.31;;;-1.75;88.09
19096;BME280;9680;52.520;13.332;2022-12-17T04:45:54;102087.72;;;-1.66;88.22
19096;BME280;9680;52.520;13.332;2022-12-17T04:48:38;102092.19;;;-1.61;88.23
19096;BME280;9680;52.520;13.332;2022-12-17T04:51:22;102081.03;;;-1.64;87.60
19096;BME280;9680;52.520;13.332;2022-12-17T04:54:06;102081.97;;;-1.61;88.14
19096;BME280;9680;52.520;13.332;2022-12-17T04:56:50;102088.09;;;-1.55;87.94
19096;BME280;9680;52.520;13.332;2022-12-17T04:59:34;102084.53;;;-1.61;87.38
19096;BME280;9680;52.520;13.332;2022-12-17T05:02:18;102100.78;;;-1.58;87.26
19096;BME280;9680;52.520;13.332;2022-12-17T05:05:02;102091.09;;;-1.67;87.40
19096;BME280;9680;52.520;13.332;2022-12-17T05:07:46;102094.72;;;-1.62;87.61
19096;BME280;9680;52.520;13.332;2022-12-17T05:10:30;102090.56;;;-1.58;87.31
19096;BME280;9680;52.520;13.332;2022-12-17T05:13:14;102107.81;;;-1.53;87.45
19096;BME280;9680;52.520;13.332;2022-12-17T05:15:58;102108.56;;;-1.55;87.17
19096;BME280;9680;52.520;13.332;2022-12-17T05:18:42;102111.94;;;-1.56;86.73
19096;BME280;9680;52.520;13.332;2022-12-17T05:21:25;102104.50;;;-1.74;86.40
19096;BME280;9680;52.520;13.332;2022-12-17T05:24:09;102106.94;;;-1.78;86.45
19096;BME280;9680;52.520;13.332;2022-12-17T05:26:53;102111.94;;;-1.81;86.54
19096;BME280;9680;52.520;13.332;2022-12-17T05:29:37;102123.69;;;-1.86;86.49
19096;BME280;9680;52.520;13.332;2022-12-17T05:32:21;102116.50;;;-1.96;85.94
19096;BME280;9680;52.520;13.332;2022-12-17T05:35:05;102116.41;;;-1.99;86.39
19096;BME280;9680;52.520;13.332;2022-12-17T05:37:49;102118.34;;;-1.92;86.98
19096;BME280;9680;52.520;13.332;2022-12-17T05:40:34;102130.50;;;-1.86;86.75
19096;BME280;9680;52.520;13.332;2022-12-17T05:43:17;102134.00;;;-1.83;86.42
19096;BME280;9680;52.520;13.332;2022-12-17T05:46:01;102146.63;;;-1.87;86.42
19096;BME280;9680;52.520;13.332;2022-12-17T05:48:45;102142.06;;;-1.96;86.03
19096;BME280;9680;52.520;13.332;2022-12-17T05:51:29;102152.16;;;-1.99;86.37
19096;BME280;9680;52.520;13.332;2022-12-17T05:54:14;102147.97;;;-1.97;86.36
19096;BME280;9680;52.520;13.332;2022-12-17T05:56:58;102164.13;;;-1.98;86.32
19096;BME280;9680;52.520;13.332;2022-12-17T05:59:42;102166.69;;;-1.98;86.03
19096;BME280;9680;52.520;13.332;2022-12-17T06:02:26;102166.34;;;-2.08;85.99
19096;BME280;9680;52.520;13.332;2022-12-17T06:05:10;102170.56;;;-2.08;86.29
19096;BME280;9680;52.520;13.332;2022-12-17T06:08:05;102177.28;;;-2.10;86.29
19096;BME280;9680;52.520;13.332;2022-12-17T06:10:49;102180.66;;;-2.11;86.47
19096;BME280;9680;52.520;13.332;2022-12-17T06:13:33;102176.31;;;-2.14;86.19
19096;BME280;9680;52.520;13.332;2022-12-17T06:16:17;102172.31;;;-2.07;87.07
19096;BME280;9680;52.520;13.332;2022-12-17T06:19:01;102181.00;;;-2.02;86.96
19096;BME280;9680;52.520;13.332;2022-12-17T06:21:45;102179.16;;;-2.06;86.43
19096;BME280;9680;52.520;13.332;2022-12-17T06:24:29;102183.19;;;-2.13;86.35
19096;BME280;9680;52.520;13.332;2022-12-17T06:27:13;102187.28;;;-2.16;86.32
19096;BME280;9680;52.520;13.332;2022-12-17T06:29:57;102198.63;;;-2.10;86.71
19096;BME280;9680;52.520;13.332;2022-12-17T06:32:48;102188.16;;;-2.16;86.51
19096;BME280;9680;52.520;13.332;2022-12-17T06:35:32;102186.44;;;-2.17;86.76
19096;BME280;9680;52.520;13.332;2022-12-17T06:38:16;102201.16;;;-2.10;86.94
19096;BME280;9680;52.520;13.332;2022-12-17T06:41:01;102198.88;;;-2.02;87.03
19096;BME280;9680;52.520;13.332;2022-12-17T06:43:45;102197.31;;;-1.98;87.08
19096;BME280;9680;52.520;13.332;2022-12-17T06:46:31;102191.50;;;-1.94;86.56
19096;BME280;9680;52.520;13.332;2022-12-17T06:49:15;102196.75;;;-1.91;86.47
19096;BME280;9680;52.520;13.332;2022-12-17T06:51:59;102201.44;;;-1.79;86.74
19096;BME280;9680;52.520;13.332;2022-12-17T06:54:43;102217.59;;;-1.80;86.12
19096;BME280;9680;52.520;13.332;2022-12-17T06:57:26;102213.00;;;-1.89;85.58
19096;BME280;9680;52.520;13.332;2022-12-17T07:00:10;102226.31;;;-1.98;85.57
19096;BME280;9680;52.520;13.332;2022-12-17T07:02:55;102227.78;;;-2.03;85.48
19096;BME280;9680;52.520;13.332;2022-12-17T07:05:39;102242.84;;;-2.11;85.74
19096;BME280;9680;52.520;13.332;2022-12-17T07:08:23;102252.47;;;-2.03;86.15
19096;BME280;9680;52.520;13.332;2022-12-17T07:11:07;102252.59;;;-2.00;85.94
19096;BME280;9680;52.520;13.332;2022-12-17T07:13:51;102254.25;;;-2.01;85.58
19096;BME280;9680;52.520;13.332;2022-12-17T07:16:35;102258.50;;;-2.01;85.62
19096;BME280;9680;52.520;13.332;2022-12-17T07:19:18;102255.16;;;-2.00;85.79
19096;BME280;9680;52.520;13.332;2022-12-17T07:22:02;102270.59;;;-1.97;85.69
19096;BME280;9680;52.520;13.332;2022-12-17T07:24:57;102267.22;;;-1.96;85.53
19096;BME280;9680;52.520;13.332;2022-12-17T07:27:41;102272.41;;;-1.95;85.54
19096;BME280;9680;52.520;13.332;2022-12-17T07:30:25;102272.56;;;-1.90;85.69
19096;BME280;9680;52.520;13.332;2022-12-17T07:33:09;102274.50;;;-1.84;85.67
19096;BME280;9680;52.520;13.332;2022-12-17T07:35:54;102271.13;;;-1.83;85.72
19096;BME280;9680;52.520;13.332;2022-12-17T07:38:38;102273.25;;;-1.71;86.03
19096;BME280;9680;52.520;13.332;2022-12-17T07:41:23;102276.84;;;-1.66;85.36
19096;BME280;9680;52.520;13.332;2022-12-17T07:44:23;102281.63;;;-1.76;84.75
19096;BME280;9680;52.520;13.332;2022-12-17T07:47:07;102287.50;;;-1.78;84.98
19096;BME280;9680;52.520;13.332;2022-12-17T07:49:52;102299.28;;;-1.82;84.37
19096;BME280;9680;52.520;13.332;2022-12-17T07:52:35;102309.38;;;-1.85;84.76
19096;BME280;9680;52.520;13.332;2022-12-17T07:55:19;102312.06;;;-1.82;84.65
19096;BME280;9680;52.520;13.332;2022-12-17T07:58:06;102318.09;;;-1.80;84.82
19096;BME280;9680;52.520;13.332;2022-12-17T08:00:51;102319.84;;;-1.79;84.57
19096;BME280;9680;52.520;13.332;2022-12-17T08:03:35;102322.63;;;-1.72;84.71
19096;BME280;9680;52.520;13.332;2022-12-17T08:06:19;102322.00;;;-1.67;84.64
19096;BME280;9680;52.520;13.332;2022-12-17T08:09:04;102327.53;;;-1.56;84.77
19096;BME280;9680;52.520;13.332;2022-12-17T08:11:48;102327.63;;;-1.53;84.59
19096;BME280;9680;52.520;13.332;2022-12-17T08:14:32;102322.63;;;-1.50;84.28
19096;BME280;9680;52.520;13.332;2022-12-17T08:17:16;102331.25;;;-1.48;84.18
19096;BME280;9680;52.520;13.332;2022-12-17T08:20:00;102322.56;;;-1.51;83.77
19096;BME280;9680;52.520;13.332;2022-12-17T08:22:44;102325.25;;;-1.48;83.85
19096;BME280;9680;52.520;13.332;2022-12-17T08:25:28;102325.25;;;-1.48;83.65
19096;BME280;9680;52.520;13.332;2022-12-17T08:28:13;102332.75;;;-1.53;83.31
19096;BME280;9680;52.520;13.332;2022-12-17T08:30:56;102331.97;;;-1.50;83.78
19096;BME280;9680;52.520;13.332;2022-12-17T08:33:40;102330.31;;;-1.50;83.78
19096;BME280;9680;52.520;13.332;2022-12-17T08:36:24;102338.13;;;-1.45;83.64
19096;BME280;9680;52.520;13.332;2022-12-17T08:39:08;102336.50;;;-1.43;83.81
19096;BME280;9680;52.520;13.332;2022-12-17T08:41:53;102345.69;;;-1.25;84.06
19096;BME280;9680;52.520;13.332;2022-12-17T08:44:37;102334.97;;;-1.15;83.58
19096;BME280;9680;52.520;13.332;2022-12-17T08:47:21;102343.41;;;-1.18;82.80
19096;BME280;9680;52.520;13.332;2022-12-17T08:50:05;102343.41;;;-1.18;82.67
19096;BME280;9680;52.520;13.332;2022-12-17T08:53:00;102353.63;;;-1.18;82.94
19096;BME280;9680;52.520;13.332;2022-12-17T08:55:55;102350.16;;;-1.20;82.86
19096;BME280;9680;52.520;13.332;2022-12-17T08:58:39;102354.56;;;-1.15;82.88
19096;BME280;9680;52.520;13.332;2022-12-17T09:01:23;102360.81;;;-1.07;82.95
19096;BME280;9680;52.520;13.332;2022-12-17T09:04:07;102358.38;;;-1.04;82.74
19096;BME280;9680;52.520;13.332;2022-12-17T09:06:51;102365.81;;;-1.10;82.50
19096;BME280;9680;52.520;13.332;2022-12-17T09:09:35;102371.66;;;-1.14;82.14
19096;BME280;9680;52.520;13.332;2022-12-17T09:12:19;102371.59;;;-1.16;82.40
19096;BME280;9680;52.520;13.332;2022-12-17T09:15:03;102376.66;;;-1.18;82.18
19096;BME280;9680;52.520;13.332;2022-12-17T09:18:08;102384.28;;;-1.19;82.00
19096;BME280;9680;52.520;13.332;2022-12-17T09:20:53;102381.66;;;-1.21;82.25
19096;BME280;9680;52.520;13.332;2022-12-17T09:23:38;102383.88;;;-1.30;82.03
19096;BME280;9680;52.520;13.332;2022-12-17T09:26:23;102373.72;;;-1.28;82.26
19096;BME280;9680;52.520;13.332;2022-12-17T09:29:07;102376.31;;;-1.27;82.31
19096;BME280;9680;52.520;13.332;2022-12-17T09:31:51;102377.25;;;-1.25;82.40
19096;BME280;9680;52.520;13.332;2022-12-17T09:34:35;102369.88;;;-1.17;82.37
19096;BME280;9680;52.520;13.332;2022-12-17T09:37:19;102378.50;;;-1.13;81.96
19096;BME280;9680;52.520;13.332;2022-12-17T09:40:03;102379.66;;;-1.05;82.03
19096;BME280;9680;52.520;13.332;2022-12-17T09:42:57;102383.25;;;-1.00;82.08
19096;BME280;9680;52.520;13.332;2022-12-17T09:46:05;102382.88;;;-1.11;81.31
19096;BME280;9680;52.520;13.332;2022-12-17T09:49:13;102386.63;;;-1.01;82.02
19096;BME280;9680;52.520;13.332;2022-12-17T09:52:03;102382.84;;;-0.88;81.90
19096;BME280;9680;52.520;13.332;2022-12-17T09:54:57;102386.59;;;-0.78;81.48
19096;BME280;9680;52.520;13.332;2022-12-17T09:57:42;102379.13;;;-0.72;81.38
19096;BME280;9680;52.520;13.332;2022-12-17T10:00:27;102392.44;;;-0.58;81.44
19096;BME280;9680;52.520;13.332;2022-12-17T10:03:15;102396.13;;;-0.50;80.75
19096;BME280;9680;52.520;13.332;2022-12-17T10:06:07;102401.75;;;-0.60;79.87
19096;BME280;9680;52.520;13.332;2022-12-17T10:09:13;102400.66;;;-0.67;80.26
19096;BME280;9680;52.520;13.332;2022-12-17T10:12:18;102411.81;;;-0.65;79.94
19096;BME280;9680;52.520;13.332;2022-12-17T10:15:05;102409.22;;;-0.66;80.20
19096;BME280;9680;52.520;13.332;2022-12-17T10:18:06;102416.41;;;-0.56;79.98
19096;BME280;9680;52.520;13.332;2022-12-17T10:21:03;102416.06;;;-0.65;79.65
19096;BME280;9680;52.520;13.332;2022-12-17T10:23:48;102421.22;;;-0.64;79.27
19096;BME280;9680;52.520;13.332;2022-12-17T10:26:34;102426.47;;;-0.61;79.54
19096;BME280;9680;52.520;13.332;2022-12-17T10:29:21;102417.25;;;-0.55;79.84
19096;BME280;9680;52.520;13.332;2022-12-17T10:35:01;102412.22;;;-0.52;79.56
19096;BME280;9680;52.520;13.332;2022-12-17T10:37:50;102417.75;;;-0.41;79.72
19096;BME280;9680;52.520;13.332;2022-12-17T10:40:34;102413.56;;;-0.38;79.48
19096;BME280;9680;52.520;13.332;2022-12-17T10:46:09;102426.56;;;-0.33;79.33
19096;BME280;9680;52.520;13.332;2022-12-17T10:49:20;102425.63;;;-0.35;78.66
19096;BME280;9680;52.520;13.332;2022-12-17T10:55:34;102424.63;;;-0.39;78.33
19096;BME280;9680;52.520;13.332;2022-12-17T10:58:22;102442.22;;;-0.50;78.01
19096;BME280;9680;52.520;13.332;2022-12-17T11:01:18;102432.81;;;-0.49;78.58
19096;BME280;9680;52.520;13.332;2022-12-17T11:04:27;102439.69;;;-0.48;78.54
19096;BME280;9680;52.520;13.332;2022-12-17T11:07:16;102440.63;;;-0.46;78.51
19096;BME280;9680;52.520;13.332;2022-12-17T11:10:04;102438.97;;;-0.44;78.48
19096;BME280;9680;52.520;13.332;2022-12-17T11:12:58;102448.03;;;-0.54;77.91
19096;BME280;9680;52.520;13.332;2022-12-17T11:15:50;102445.25;;;-0.60;78.14
19096;BME280;9680;52.520;13.332;2022-12-17T11:20:21;102449.59;;;-0.82;78.29
19096;BME280;9680;52.520;13.332;2022-12-17T11:23:49;102451.63;;;-0.73;78.84
19096;BME280;9680;52.520;13.332;2022-12-17T11:26:36;102455.31;;;-0.65;79.09
19096;BME280;9680;52.520;13.332;2022-12-17T11:29:24;102456.69;;;-0.50;79.24
19096;BME280;9680;52.520;13.332;2022-12-17T11:32:38;102462.31;;;-0.36;78.86
19096;BME280;9680;52.520;13.332;2022-12-17T11:35:29;102459.31;;;-0.24;78.54
19096;BME280;9680;52.520;13.332;2022-12-17T11:38:30;102467.25;;;-0.41;77.53
19096;BME280;9680;52.520;13.332;2022-12-17T11:41:20;102462.72;;;-0.48;78.04
19096;BME280;9680;52.520;13.332;2022-12-17T11:44:12;102472.47;;;-0.38;78.41
19096;BME280;9680;52.520;13.332;2022-12-17T11:47:09;102472.72;;;-0.32;78.41
19096;BME280;9680;52.520;13.332;2022-12-17T11:50:04;102472.38;;;-0.41;77.20
19096;BME280;9680;52.520;13.332;2022-12-17T11:52:59;102482.97;;;-0.79;77.69
19096;BME280;9680;52.520;13.332;2022-12-17T11:55:56;102480.47;;;-0.77;78.58
19096;BME280;9680;52.520;13.332;2022-12-17T11:58:50;102479.06;;;-0.69;78.81
19096;BME280;9680;52.520;13.332;2022-12-17T12:01:40;102477.56;;;-0.64;78.76
19096;BME280;9680;52.520;13.332;2022-12-17T12:04:41;102472.66;;;-0.57;78.53
19096;BME280;9680;52.520;13.332;2022-12-17T12:07:37;102472.06;;;-0.50;78.61
19096;BME280;9680;52.520;13.332;2022-12-17T12:10:32;102475.38;;;-0.53;78.18
19096;BME280;9680;52.520;13.332;2022-12-17T12:13:23;102482.97;;;-0.79;77.88
19096;BME280;9680;52.520;13.332;2022-12-17T12:16:16;102485.97;;;-0.91;78.03
19096;BME280;9680;52.520;13.332;2022-12-17T12:19:13;102482.69;;;-1.09;78.75
19096;BME280;9680;52.520;13.332;2022-12-17T12:22:07;102480.59;;;-1.20;79.05
19096;BME280;9680;52.520;13.332;2022-12-17T12:25:10;102493.13;;;-1.26;79.38
19096;BME280;9680;52.520;13.332;2022-12-17T12:28:06;102490.59;;;-1.26;80.04
19096;BME280;9680;52.520;13.332;2022-12-17T12:31:02;102492.75;;;-1.14;80.36
19096;BME280;9680;52.520;13.332;2022-12-17T12:33:56;102490.69;;;-1.00;80.12
19096;BME280;9680;52.520;13.332;2022-12-17T12:36:43;102502.94;;;-0.93;79.94
19096;BME280;9680;52.520;13.332;2022-12-17T12:39:33;102504.16;;;-0.83;79.79
19096;BME280;9680;52.520;13.332;2022-12-17T12:42:22;102504.22;;;-0.81;79.52
19096;BME280;9680;52.520;13.332;2022-12-17T12:45:25;102508.63;;;-0.77;79.31
19096;BME280;9680;52.520;13.332;2022-12-17T12:48:18;102514.09;;;-0.68;79.40
19096;BME280;9680;52.520;13.332;2022-12-17T12:51:12;102511.66;;;-0.65;79.23
19096;BME280;9680;52.520;13.332;2022-12-17T12:54:26;102513.56;;;-0.59;79.23
19096;BME280;9680;52.520;13.332;2022-12-17T12:57:29;102518.72;;;-0.57;78.84
19096;BME280;9680;52.520;13.332;2022-12-17T13:00:22;102520.97;;;-0.67;78.32
19096;BME280;9680;52.520;13.332;2022-12-17T13:03:07;102521.47;;;-0.76;78.37
19096;BME280;9680;52.520;13.332;2022-12-17T13:05:52;102523.66;;;-0.86;78.50
19096;BME280;9680;52.520;13.332;2022-12-17T13:08:22;102524.81;;;-0.78;79.31
19096;BME280;9680;52.520;13.332;2022-12-17T13:10:51;102523.22;;;-0.75;79.24
19096;BME280;9680;52.520;13.332;2022-12-17T13:13:30;102516.47;;;-0.73;79.14
19096;BME280;9680;52.520;13.332;2022-12-17T13:16:03;102522.69;;;-0.66;79.02
19096;BME280;9680;52.520;13.332;2022-12-17T13:18:32;102528.75;;;-0.64;78.90
19096;BME280;9680;52.520;13.332;2022-12-17T13:21:01;102530.69;;;-0.58;78.92
19096;BME280;9680;52.520;13.332;2022-12-17T13:23:32;102527.22;;;-0.59;78.55
19096;BME280;9680;52.520;13.332;2022-12-17T13:26:18;102535.28;;;-0.95;77.75
19096;BME280;9680;52.520;13.332;2022-12-17T13:29:09;102534.78;;;-1.07;78.79
19096;BME280;9680;52.520;13.332;2022-12-17T13:31:51;102538.97;;;-1.09;78.95
19096;BME280;9680;52.520;13.332;2022-12-17T13:34:24;102547.66;;;-1.06;79.21
19096;BME280;9680;52.520;13.332;2022-12-17T13:36:58;102542.66;;;-1.03;79.19
19096;BME280;9680;52.520;13.332;2022-12-17T13:39:34;102550.25;;;-1.04;79.17
19096;BME280;9680;52.520;13.332;2022-12-17T13:42:03;102550.44;;;-0.99;79.20
19096;BME280;9680;52.520;13.332;2022-12-17T13:44:36;102551.25;;;-1.00;79.03
19096;BME280;9680;52.520;13.332;2022-12-17T13:47:19;102554.97;;;-1.15;78.57
19096;BME280;9680;52.520;13.332;2022-12-17T13:49:50;102559.63;;;-1.26;78.73
19096;BME280;9680;52.520;13.332;2022-12-17T13:52:22;102558.66;;;-1.29;79.35
19096;BME280;9680;52.520;13.332;2022-12-17T13:54:52;102559.47;;;-1.30;79.62
19096;BME280;9680;52.520;13.332;2022-12-17T13:57:21;102566.81;;;-1.38;79.32
19096;BME280;9680;52.520;13.332;2022-12-17T13:59:49;102567.53;;;-1.41;79.74
19096;BME280;9680;52.520;13.332;2022-12-17T14:02:23;102571.31;;;-1.33;80.30
19096;BME280;9680;52.520;13.332;2022-12-17T14:04:51;102576.69;;;-1.26;80.19
19096;BME280;9680;52.520;13.332;2022-12-17T14:07:18;102571.63;;;-1.25;80.35
19096;BME280;9680;52.520;13.332;2022-12-17T14:09:47;102576.00;;;-1.22;80.10
19096;BME280;9680;52.520;13.332;2022-12-17T14:12:18;102582.03;;;-1.20;80.11
19096;BME280;9680;52.520;13.332;2022-12-17T14:14:51;102587.19;;;-1.19;80.12
19096;BME280;9680;52.520;13.332;2022-12-17T14:17:22;102595.81;;;-1.17;79.94
19096;BME280;9680;52.520;13.332;2022-12-17T14:19:55;102599.06;;;-1.21;79.65
19096;BME280;9680;52.520;13.332;2022-12-17T14:22:28;102599.16;;;-1.39;79.28
19096;BME280;9680;52.520;13.332;2022-12-17T14:24:57;102593.88;;;-1.43;79.85
19096;BME280;9680;52.520;13.332;2022-12-17T14:27:31;102589.66;;;-1.63;79.49
19096;BME280;9680;52.520;13.332;2022-12-17T14:29:58;102605.31;;;-1.76;80.09
19096;BME280;9680;52.520;13.332;2022-12-17T14:32:32;102603.34;;;-1.82;80.44
19096;BME280;9680;52.520;13.332;2022-12-17T14:34:59;102603.47;;;-1.79;80.94
19096;BME280;9680;52.520;13.332;2022-12-17T14:37:27;102600.91;;;-1.79;80.69
19096;BME280;9680;52.520;13.332;2022-12-17T14:39:59;102601.13;;;-1.74;80.96
19096;BME280;9680;52.520;13.332;2022-12-17T14:42:28;102600.38;;;-1.71;81.13
19096;BME280;9680;52.520;13.332;2022-12-17T14:44:58;102609.09;;;-1.66;81.28
19096;BME280;9680;52.520;13.332;2022-12-17T14:47:27;102606.72;;;-1.63;81.20